createdAt,value
2018-09-02T00:02:27.315Z,10.66
2018-09-02T00:05:43.488Z,10.65
2018-09-02T00:08:11.960Z,10.63
2018-09-02T00:10:40.485Z,10.61
2018-09-02T00:13:08.997Z,10.53
2018-09-02T00:15:37.499Z,10.48
2018-09-02T00:18:05.954Z,10.45
2018-09-02T00:20:34.559Z,10.46
2018-09-02T00:23:02.996Z,10.48
2018-09-02T00:25:31.481Z,10.46
2018-09-02T00:28:00.025Z,10.45
2018-09-02T00:30:28.554Z,10.48
2018-09-02T00:32:57.089Z,10.54
2018-09-02T00:35:25.583Z,10.60
2018-09-02T00:37:54.097Z,10.61
2018-09-02T00:40:22.573Z,10.63
2018-09-02T00:42:51.055Z,10.66
2018-09-02T00:45:19.590Z,10.68
2018-09-02T00:48:15.164Z,10.71
2018-09-02T00:50:43.643Z,10.78
2018-09-02T00:53:12.134Z,10.83
2018-09-02T00:55:40.585Z,10.85
2018-09-02T00:58:09.083Z,10.88
2018-09-02T01:00:37.565Z,10.88
2018-09-02T01:03:06.160Z,10.88
2018-09-02T01:05:58.289Z,10.85
2018-09-02T01:08:26.816Z,10.85
2018-09-02T01:10:55.365Z,10.88
2018-09-02T01:13:23.889Z,10.91
2018-09-02T01:15:52.424Z,10.87
2018-09-02T01:18:20.952Z,10.86
2018-09-02T01:20:49.500Z,10.86
2018-09-02T01:23:18.068Z,10.88
2018-09-02T01:25:46.557Z,10.93
2018-09-02T01:28:15.075Z,10.97
2018-09-02T01:30:43.623Z,11.00
2018-09-02T01:33:12.062Z,10.98
2018-09-02T01:36:29.508Z,10.98
2018-09-02T01:38:58.017Z,10.99
2018-09-02T01:41:26.481Z,11.02
2018-09-02T01:43:54.930Z,11.04
2018-09-02T01:46:23.668Z,11.03
2018-09-02T01:48:53.077Z,11.02
2018-09-02T01:51:21.544Z,11.03
2018-09-02T01:53:50.037Z,11.02
2018-09-02T01:56:25.963Z,11.01
2018-09-02T01:58:54.997Z,11.00
2018-09-02T02:01:23.444Z,10.99
2018-09-02T02:03:55.830Z,10.99
2018-09-02T02:06:24.533Z,10.99
2018-09-02T02:08:53.205Z,10.98
2018-09-02T02:11:21.747Z,10.97
2018-09-02T02:13:50.272Z,10.94
2018-09-02T02:16:18.855Z,10.89
2018-09-02T02:18:47.335Z,10.86
2018-09-02T02:21:15.821Z,10.84
2018-09-02T02:23:44.428Z,10.80
2018-09-02T02:26:13.001Z,10.76
2018-09-02T02:28:45.284Z,10.75
2018-09-02T02:31:13.910Z,10.73
2018-09-02T02:34:45.895Z,10.72
2018-09-02T02:37:14.434Z,10.72
2018-09-02T02:39:42.913Z,10.69
2018-09-02T02:42:16.379Z,10.68
2018-09-02T02:44:44.961Z,10.67
2018-09-02T02:47:13.491Z,10.67
2018-09-02T02:49:42.034Z,10.65
2018-09-02T02:52:10.572Z,10.63
2018-09-02T02:54:39.104Z,10.58
2018-09-02T02:57:07.591Z,10.46
2018-09-02T02:59:36.061Z,10.35
2018-09-02T03:02:04.552Z,10.25
2018-09-02T03:04:33.301Z,10.20
2018-09-02T03:07:01.818Z,10.22
2018-09-02T03:09:30.559Z,10.28
2018-09-02T03:11:59.012Z,10.23
2018-09-02T03:14:27.468Z,10.16
2018-09-02T03:16:55.928Z,10.24
2018-09-02T03:19:24.434Z,10.33
2018-09-02T03:21:53.184Z,10.31
2018-09-02T03:24:21.702Z,10.25
2018-09-02T03:26:50.322Z,10.20
2018-09-02T03:29:18.930Z,10.21
2018-09-02T03:31:47.443Z,10.14
2018-09-02T03:34:16.029Z,10.13
2018-09-02T03:36:44.546Z,10.00
2018-09-02T03:39:13.126Z,9.93
2018-09-02T03:41:41.670Z,9.87
2018-09-02T03:44:10.155Z,9.81
2018-09-02T03:46:38.977Z,9.77
2018-09-02T03:49:07.551Z,9.70
2018-09-02T03:51:36.021Z,9.70
2018-09-02T03:54:05.020Z,9.72
2018-09-02T03:56:33.514Z,9.74
2018-09-02T03:59:02.118Z,9.75
2018-09-02T04:01:30.586Z,9.75
2018-09-02T04:04:02.676Z,9.74
2018-09-02T04:06:31.214Z,9.76
2018-09-02T04:09:00.010Z,9.79
2018-09-02T04:11:28.793Z,9.81
2018-09-02T04:14:01.017Z,9.81
2018-09-02T04:16:29.563Z,9.85
2018-09-02T04:18:58.124Z,9.89
2018-09-02T04:21:26.729Z,9.91
2018-09-02T04:23:56.047Z,9.95
2018-09-02T04:26:24.609Z,9.98
2018-09-02T04:28:53.058Z,9.98
2018-09-02T04:31:43.896Z,9.99
2018-09-02T04:34:12.517Z,10.02
2018-09-02T04:36:40.951Z,10.06
2018-09-02T04:39:10.011Z,10.05
2018-09-02T04:41:39.300Z,9.94
2018-09-02T04:44:07.843Z,9.98
2018-09-02T04:46:36.409Z,9.99
2018-09-02T04:49:04.894Z,9.95
2018-09-02T04:51:33.371Z,9.89
2018-09-02T04:54:01.856Z,9.85
2018-09-02T04:56:30.317Z,9.79
2018-09-02T04:58:59.009Z,9.72
2018-09-02T05:01:28.735Z,9.76
2018-09-02T05:03:57.364Z,9.82
2018-09-02T05:06:25.889Z,9.86
2018-09-02T05:08:54.397Z,9.85
2018-09-02T05:11:23.064Z,9.78
2018-09-02T05:13:51.502Z,9.76
2018-09-02T05:16:20.026Z,9.83
2018-09-02T05:18:48.563Z,9.93
2018-09-02T05:21:17.104Z,10.04
2018-09-02T05:23:45.545Z,10.12
2018-09-02T05:26:13.983Z,10.11
2018-09-02T05:28:42.553Z,9.95
2018-09-02T05:31:11.040Z,9.89
2018-09-02T05:33:39.541Z,9.95
2018-09-02T05:36:08.092Z,10.00
2018-09-02T05:38:37.133Z,10.16
2018-09-02T05:41:05.642Z,10.37
2018-09-02T05:43:34.177Z,10.50
2018-09-02T05:46:02.625Z,10.62
2018-09-02T05:48:31.176Z,10.71
2018-09-02T05:50:59.646Z,10.80
2018-09-02T05:53:28.181Z,10.89
2018-09-02T05:55:56.710Z,10.99
2018-09-02T05:58:25.265Z,11.08
2018-09-02T06:00:53.833Z,11.18
2018-09-02T06:03:22.319Z,11.31
2018-09-02T06:05:50.958Z,11.43
2018-09-02T06:08:19.503Z,11.57
2018-09-02T06:10:48.006Z,11.70
2018-09-02T06:13:16.622Z,11.83
2018-09-02T06:15:45.150Z,11.97
2018-09-02T06:18:13.665Z,12.09
2018-09-02T06:20:42.201Z,12.20
2018-09-02T06:23:10.757Z,12.32
2018-09-02T06:25:39.325Z,12.43
2018-09-02T06:28:07.848Z,12.55
2018-09-02T06:30:36.383Z,12.65
2018-09-02T06:33:05.436Z,12.74
2018-09-02T06:35:33.948Z,12.86
2018-09-02T06:38:02.523Z,12.97
2018-09-02T06:40:31.939Z,13.07
2018-09-02T06:43:00.735Z,13.22
2018-09-02T06:45:29.315Z,13.36
2018-09-02T06:47:57.866Z,13.45
2018-09-02T06:50:26.381Z,13.56
2018-09-02T06:52:54.918Z,13.62
2018-09-02T06:55:23.420Z,13.68
2018-09-02T06:57:51.990Z,13.78
2018-09-02T07:00:20.542Z,13.89
2018-09-02T07:02:49.526Z,13.96
2018-09-02T07:05:17.985Z,14.03
2018-09-02T07:07:46.430Z,14.10
2018-09-02T07:10:14.910Z,14.20
2018-09-02T07:12:43.427Z,14.31
2018-09-02T07:15:11.994Z,14.39
2018-09-02T07:17:40.578Z,14.52
2018-09-02T07:20:09.165Z,14.61
2018-09-02T07:22:37.569Z,14.69
2018-09-02T07:25:06.090Z,14.77
2018-09-02T07:27:34.653Z,14.87
2018-09-02T07:30:03.237Z,14.94
2018-09-02T07:32:31.763Z,14.99
2018-09-02T07:35:00.259Z,15.05
2018-09-02T07:37:28.824Z,15.10
2018-09-02T07:40:01.744Z,15.26
2018-09-02T07:42:30.302Z,15.42
2018-09-02T07:44:58.852Z,15.46
2018-09-02T07:47:27.364Z,15.50
2018-09-02T07:49:55.864Z,15.58
2018-09-02T07:52:24.315Z,15.69
2018-09-02T07:54:52.993Z,15.83
2018-09-02T07:57:21.492Z,15.95
2018-09-02T07:59:50.034Z,16.01
2018-09-02T08:02:18.663Z,16.09
2018-09-02T08:04:47.168Z,16.10
2018-09-02T08:07:15.638Z,16.22
2018-09-02T08:09:44.323Z,16.36
2018-09-02T08:12:12.887Z,16.46
2018-09-02T08:14:42.513Z,16.53
2018-09-02T08:17:10.995Z,16.59
2018-09-02T08:19:39.564Z,16.75
2018-09-02T08:22:08.056Z,16.83
2018-09-02T08:24:36.756Z,16.95
2018-09-02T08:27:05.629Z,17.09
2018-09-02T08:29:34.093Z,17.15
2018-09-02T08:32:02.593Z,17.20
2018-09-02T08:34:31.065Z,17.25
2018-09-02T08:36:59.589Z,17.40
2018-09-02T08:39:28.777Z,17.56
2018-09-02T08:41:57.296Z,17.71
2018-09-02T08:44:25.834Z,17.73
2018-09-02T08:46:54.248Z,17.79
2018-09-02T08:49:22.802Z,17.96
2018-09-02T08:51:51.640Z,18.01
2018-09-02T08:54:20.164Z,18.12
2018-09-02T08:56:48.649Z,18.22
2018-09-02T08:59:17.108Z,18.30
2018-09-02T09:01:45.799Z,18.52
2018-09-02T09:04:14.164Z,18.64
2018-09-02T09:06:42.710Z,18.70
2018-09-02T09:09:11.410Z,18.81
2018-09-02T09:11:39.844Z,18.95
2018-09-02T09:14:08.321Z,19.02
2018-09-02T09:16:36.906Z,19.11
2018-09-02T09:19:05.321Z,19.21
2018-09-02T09:21:33.877Z,19.28
2018-09-02T09:24:02.389Z,19.33
2018-09-02T09:26:30.934Z,19.42
2018-09-02T09:28:59.516Z,19.44
2018-09-02T09:31:27.997Z,19.56
2018-09-02T09:33:56.419Z,19.68
2018-09-02T09:36:24.860Z,19.76
2018-09-02T09:38:53.311Z,19.81
2018-09-02T09:41:21.830Z,19.85
2018-09-02T09:43:50.296Z,19.94
2018-09-02T09:46:18.932Z,20.02
2018-09-02T09:48:47.488Z,20.09
2018-09-02T09:51:16.153Z,20.16
2018-09-02T09:53:45.761Z,20.25
2018-09-02T09:56:14.342Z,20.31
2018-09-02T09:58:42.941Z,20.44
2018-09-02T10:01:11.521Z,20.55
2018-09-02T10:03:40.154Z,20.68
2018-09-02T10:06:08.682Z,20.79
2018-09-02T10:08:37.182Z,20.85
2018-09-02T10:11:05.650Z,20.85
2018-09-02T10:13:34.136Z,20.94
2018-09-02T10:16:03.027Z,21.06
2018-09-02T10:18:31.510Z,21.07
2018-09-02T10:20:59.991Z,21.12
2018-09-02T10:23:28.454Z,21.18
2018-09-02T10:25:56.873Z,21.24
2018-09-02T10:28:25.592Z,21.32
2018-09-02T10:30:54.126Z,21.41
2018-09-02T10:33:22.729Z,21.52
2018-09-02T10:35:51.167Z,21.57
2018-09-02T10:38:19.675Z,21.56
2018-09-02T10:40:48.151Z,21.56
2018-09-02T10:43:16.949Z,21.67
2018-09-02T10:45:45.440Z,21.74
2018-09-02T10:48:14.122Z,21.81
2018-09-02T10:50:42.594Z,21.97
2018-09-02T10:53:11.414Z,22.11
2018-09-02T10:55:40.533Z,22.17
2018-09-02T10:58:09.009Z,22.20
2018-09-02T11:00:37.605Z,22.25
2018-09-02T11:03:06.156Z,22.37
2018-09-02T11:05:34.712Z,22.64
2018-09-02T11:08:03.200Z,22.79
2018-09-02T11:10:31.660Z,22.82
2018-09-02T11:13:00.168Z,22.83
2018-09-02T11:15:28.805Z,22.90
2018-09-02T11:17:57.297Z,22.94
2018-09-02T11:20:25.865Z,23.04
2018-09-02T11:22:54.786Z,23.09
2018-09-02T11:25:23.357Z,23.22
2018-09-02T11:27:52.582Z,23.24
2018-09-02T11:30:21.098Z,23.29
2018-09-02T11:32:49.654Z,23.46
2018-09-02T11:35:18.174Z,23.56
2018-09-02T11:37:46.603Z,23.66
2018-09-02T11:40:15.164Z,23.56
2018-09-02T11:42:43.570Z,23.60
2018-09-02T11:45:12.218Z,23.61
2018-09-02T11:47:40.735Z,23.70
2018-09-02T11:50:09.223Z,23.79
2018-09-02T11:52:37.808Z,23.88
2018-09-02T11:55:06.402Z,23.98
2018-09-02T11:57:34.980Z,23.90
2018-09-02T12:00:03.504Z,24.11
2018-09-02T12:03:17.061Z,24.38
2018-09-02T12:05:45.573Z,24.43
2018-09-02T12:08:14.005Z,24.42
2018-09-02T12:10:42.522Z,24.44
2018-09-02T12:13:11.084Z,24.38
2018-09-02T12:15:39.732Z,24.38
2018-09-02T12:18:16.237Z,24.31
2018-09-02T12:20:44.750Z,24.52
2018-09-02T12:23:13.342Z,24.72
2018-09-02T12:25:41.836Z,25.03
2018-09-02T12:28:10.412Z,25.26
2018-09-02T12:30:39.199Z,25.35
2018-09-02T12:33:08.183Z,25.40
2018-09-02T12:35:36.885Z,25.48
2018-09-02T12:38:05.365Z,25.87
2018-09-02T12:40:33.923Z,26.21
2018-09-02T12:43:02.404Z,26.36
2018-09-02T12:45:30.898Z,26.44
2018-09-02T12:47:59.484Z,26.69
2018-09-02T12:50:27.973Z,26.71
2018-09-02T12:52:56.894Z,26.89
2018-09-02T12:55:25.170Z,26.95
2018-09-02T12:57:53.521Z,27.28
2018-09-02T13:00:22.006Z,27.45
2018-09-02T13:02:50.574Z,27.79
2018-09-02T13:05:19.149Z,28.03
2018-09-02T13:07:47.761Z,28.02
2018-09-02T13:10:16.327Z,28.12
2018-09-02T13:12:44.872Z,28.30
2018-09-02T13:15:13.430Z,28.34
2018-09-02T13:17:41.969Z,28.24
2018-09-02T13:20:10.440Z,27.96
2018-09-02T13:22:38.885Z,28.07
2018-09-02T13:25:07.463Z,28.39
2018-09-02T13:27:36.043Z,28.71
2018-09-02T13:30:05.006Z,28.39
2018-09-02T13:32:33.472Z,27.75
2018-09-02T13:35:01.953Z,28.00
2018-09-02T13:37:30.441Z,28.57
2018-09-02T13:39:59.005Z,28.56
2018-09-02T13:42:27.472Z,28.41
2018-09-02T13:44:55.952Z,28.44
2018-09-02T13:47:25.780Z,28.52
2018-09-02T13:49:55.050Z,28.26
2018-09-02T13:52:23.515Z,28.17
2018-09-02T13:54:52.368Z,28.20
2018-09-02T13:57:21.245Z,28.39
2018-09-02T13:59:49.786Z,28.44
2018-09-02T14:02:18.315Z,28.68
2018-09-02T14:04:46.777Z,28.78
2018-09-02T14:07:15.276Z,28.95
2018-09-02T14:09:43.902Z,28.91
2018-09-02T14:12:12.461Z,28.45
2018-09-02T14:14:40.920Z,28.04
2018-09-02T14:17:09.500Z,27.89
2018-09-02T14:19:38.113Z,27.68
2018-09-02T14:22:07.146Z,27.54
2018-09-02T14:24:35.735Z,27.47
2018-09-02T14:27:04.224Z,27.30
2018-09-02T14:29:32.785Z,26.98
2018-09-02T14:32:01.330Z,26.63
2018-09-02T14:34:29.760Z,26.71
2018-09-02T14:36:58.367Z,26.85
2018-09-02T14:39:26.856Z,26.79
2018-09-02T14:41:55.335Z,26.92
2018-09-02T14:44:23.865Z,26.99
2018-09-02T14:46:52.413Z,26.92
2018-09-02T14:49:20.865Z,26.84
2018-09-02T14:51:49.351Z,26.70
2018-09-02T14:54:17.946Z,26.67
2018-09-02T14:56:46.493Z,26.55
2018-09-02T14:59:14.922Z,26.41
2018-09-02T15:01:43.502Z,26.26
2018-09-02T15:04:12.040Z,26.22
2018-09-02T15:06:40.507Z,26.18
2018-09-02T15:09:09.896Z,26.28
2018-09-02T15:11:45.412Z,26.32
2018-09-02T15:14:13.987Z,26.42
2018-09-02T15:16:42.563Z,26.52
2018-09-02T15:19:11.103Z,26.61
2018-09-02T15:21:39.762Z,26.48
2018-09-02T15:24:08.351Z,26.45
2018-09-02T15:26:36.905Z,26.48
2018-09-02T15:29:05.533Z,26.30
2018-09-02T15:31:34.252Z,26.35
2018-09-02T15:34:02.837Z,26.57
2018-09-02T15:36:31.349Z,26.66
2018-09-02T15:38:59.872Z,26.54
2018-09-02T15:41:28.417Z,26.36
2018-09-02T15:43:56.923Z,26.16
2018-09-02T15:46:25.735Z,26.17
2018-09-02T15:48:54.161Z,26.28
2018-09-02T15:51:22.639Z,26.16
2018-09-02T15:53:51.432Z,25.97
2018-09-02T15:56:19.900Z,25.83
2018-09-02T15:58:48.392Z,25.86
2018-09-02T16:01:27.012Z,26.00
2018-09-02T16:03:55.597Z,25.99
2018-09-02T16:06:24.618Z,25.92
2018-09-02T16:08:53.065Z,25.76
2018-09-02T16:11:21.682Z,25.67
2018-09-02T16:13:50.246Z,25.72
2018-09-02T16:16:18.862Z,25.78
2018-09-02T16:18:47.539Z,25.70
2018-09-02T16:21:15.987Z,25.67
2018-09-02T16:23:44.694Z,25.60
2018-09-02T16:26:13.201Z,25.45
2018-09-02T16:28:41.729Z,25.35
2018-09-02T16:31:10.243Z,25.28
2018-09-02T16:33:38.801Z,25.28
2018-09-02T16:36:07.426Z,25.27
2018-09-02T16:38:35.860Z,25.23
2018-09-02T16:41:04.350Z,25.23
2018-09-02T16:43:32.827Z,25.16
2018-09-02T16:46:01.679Z,25.07
2018-09-02T16:48:30.189Z,24.95
2018-09-02T16:50:58.669Z,24.92
2018-09-02T16:53:27.219Z,24.82
2018-09-02T16:55:55.782Z,24.71
2018-09-02T16:58:24.414Z,24.65
2018-09-02T17:00:52.912Z,24.59
2018-09-02T17:03:23.279Z,24.51
2018-09-02T17:05:51.808Z,24.45
2018-09-02T17:08:20.394Z,24.35
2018-09-02T17:10:48.924Z,24.31
2018-09-02T17:13:17.417Z,24.20
2018-09-02T17:15:46.065Z,24.12
2018-09-02T17:18:14.569Z,23.98
2018-09-02T17:20:45.921Z,23.77
2018-09-02T17:23:14.704Z,23.52
2018-09-02T17:25:44.758Z,23.37
2018-09-02T17:28:13.673Z,23.22
2018-09-02T17:30:42.182Z,23.09
2018-09-02T17:33:11.999Z,22.98
2018-09-02T17:35:40.578Z,22.83
2018-09-02T17:38:09.102Z,22.68
2018-09-02T17:40:37.684Z,22.56
2018-09-02T17:43:06.426Z,22.47
2018-09-02T17:45:34.984Z,22.35
2018-09-02T17:48:03.464Z,22.24
2018-09-02T17:50:32.012Z,22.12
2018-09-02T17:53:00.560Z,22.00
2018-09-02T17:55:29.147Z,21.88
2018-09-02T17:57:57.801Z,21.75
2018-09-02T18:00:37.771Z,21.63
2018-09-02T18:03:06.638Z,21.50
2018-09-02T18:05:35.205Z,21.43
2018-09-02T18:08:05.683Z,21.37
2018-09-02T18:10:34.841Z,21.26
2018-09-02T18:13:03.352Z,21.18
2018-09-02T18:15:31.825Z,21.13
2018-09-02T18:18:00.602Z,21.03
2018-09-02T18:20:29.295Z,20.94
2018-09-02T18:22:58.329Z,20.89
2018-09-02T18:25:27.218Z,20.86
2018-09-02T18:28:00.247Z,20.82
2018-09-02T18:30:29.041Z,20.79
2018-09-02T18:32:57.643Z,20.76
2018-09-02T18:35:26.535Z,20.74
2018-09-02T18:37:55.253Z,20.75
2018-09-02T18:40:23.831Z,20.74
2018-09-02T18:42:52.603Z,20.74
2018-09-02T18:45:21.229Z,20.73
2018-09-02T18:51:19.873Z,20.69
2018-09-02T18:53:48.564Z,20.66
2018-09-02T18:56:17.874Z,20.65
2018-09-02T18:58:46.671Z,20.60
2018-09-02T19:01:15.317Z,20.58
2018-09-02T19:03:44.211Z,20.56
2018-09-02T19:06:12.995Z,20.57
2018-09-02T19:08:41.698Z,20.56
2018-09-02T19:11:10.587Z,20.54
2018-09-02T19:13:39.404Z,20.52
2018-09-02T19:19:56.738Z,20.43
2018-09-02T19:22:25.847Z,20.42
2018-09-02T19:24:54.527Z,20.45
2018-09-02T19:27:23.529Z,20.44
2018-09-02T19:29:52.555Z,20.44
2018-09-02T19:32:21.476Z,20.48
2018-09-02T19:34:50.333Z,20.46
2018-09-02T19:37:18.914Z,20.44
2018-09-02T19:39:47.446Z,20.44
2018-09-02T19:42:15.929Z,20.43
2018-09-02T19:44:44.427Z,20.41
2018-09-02T19:47:13.087Z,20.41
2018-09-02T19:50:14.674Z,20.40
2018-09-02T19:52:52.184Z,20.36
2018-09-02T19:55:20.820Z,20.35
2018-09-02T19:57:49.450Z,20.33
2018-09-02T20:00:18.141Z,20.33
2018-09-02T20:02:46.690Z,20.31
2018-09-02T20:05:15.404Z,20.27
2018-09-02T20:07:43.939Z,20.25
2018-09-02T20:10:12.672Z,20.28
2018-09-02T20:12:41.217Z,20.28
2018-09-02T20:15:09.764Z,20.29
2018-09-02T20:17:38.256Z,20.27
2018-09-02T20:20:06.924Z,20.27
2018-09-02T20:22:35.424Z,20.24
2018-09-02T20:25:04.088Z,20.24
2018-09-02T20:27:32.580Z,20.22
2018-09-02T20:30:01.291Z,20.21
2018-09-02T20:32:29.853Z,20.22
2018-09-02T20:35:24.513Z,20.22
2018-09-02T20:37:52.998Z,20.21
2018-09-02T20:40:21.656Z,20.20
2018-09-02T20:42:50.248Z,20.17
2018-09-02T20:45:19.141Z,20.14
2018-09-02T20:47:51.518Z,20.13
2018-09-02T20:50:19.972Z,20.11
2018-09-02T20:52:48.416Z,20.08
2018-09-02T20:55:16.953Z,20.05
2018-09-02T20:57:45.869Z,20.04
2018-09-02T21:00:14.379Z,20.01
2018-09-02T21:02:43.005Z,19.99
2018-09-02T21:05:11.568Z,19.98
2018-09-02T21:07:40.116Z,20.01
2018-09-02T21:10:08.787Z,20.03
2018-09-02T21:12:37.282Z,20.02
2018-09-02T21:15:06.580Z,20.05
2018-09-02T21:17:35.086Z,20.04
2018-09-02T21:20:03.846Z,20.03
2018-09-02T21:22:32.349Z,20.02
2018-09-02T21:25:00.946Z,20.02
2018-09-02T21:27:29.537Z,20.01
2018-09-02T21:29:58.100Z,20.00
2018-09-02T21:32:26.678Z,19.99
2018-09-02T21:34:55.153Z,19.97
2018-09-02T21:37:23.682Z,19.96
2018-09-02T21:39:52.165Z,19.93
2018-09-02T21:42:20.689Z,19.91
2018-09-02T21:44:49.207Z,19.88
2018-09-02T21:47:17.752Z,19.86
2018-09-02T21:49:46.715Z,19.85
2018-09-02T21:52:15.218Z,19.86
2018-09-02T21:54:43.946Z,19.84
2018-09-02T21:57:12.393Z,19.80
2018-09-02T21:59:41.031Z,19.81
2018-09-02T22:02:09.497Z,19.78
2018-09-02T22:04:38.046Z,19.76
2018-09-02T22:07:06.528Z,19.73
2018-09-02T22:09:36.156Z,19.71
2018-09-02T22:12:04.962Z,19.70
2018-09-02T22:14:33.589Z,19.67
2018-09-02T22:17:02.081Z,19.65
2018-09-02T22:19:30.546Z,19.62
2018-09-02T22:21:59.013Z,19.59
2018-09-02T22:24:27.481Z,19.54
2018-09-02T22:26:56.053Z,19.51
2018-09-02T22:29:24.557Z,19.44
2018-09-02T22:31:53.033Z,19.38
2018-09-02T22:34:21.474Z,19.40
2018-09-02T22:36:49.911Z,19.40
2018-09-02T22:39:18.463Z,19.39
2018-09-02T22:41:47.039Z,19.37
2018-09-02T22:44:15.505Z,19.32
2018-09-02T22:46:43.970Z,19.30
2018-09-02T22:49:12.398Z,19.24
2018-09-02T22:51:41.034Z,19.16
2018-09-02T22:54:09.494Z,19.13
2018-09-02T22:56:37.935Z,19.12
2018-09-02T22:59:06.626Z,19.09
2018-09-02T23:01:35.198Z,19.05
2018-09-02T23:04:04.017Z,19.02
2018-09-02T23:06:32.553Z,18.99
2018-09-02T23:09:01.026Z,18.97
2018-09-02T23:11:29.566Z,18.94
2018-09-02T23:13:58.112Z,18.91
2018-09-02T23:16:26.895Z,18.91
2018-09-02T23:18:55.470Z,18.90
2018-09-02T23:21:23.975Z,18.87
2018-09-02T23:23:52.461Z,18.88
2018-09-02T23:26:20.958Z,18.88
2018-09-02T23:28:49.410Z,18.88
2018-09-02T23:31:34.544Z,18.88
2018-09-02T23:34:24.263Z,18.86
2018-09-02T23:36:52.723Z,18.81
2018-09-02T23:39:21.205Z,18.80
2018-09-02T23:41:53.137Z,18.78
2018-09-02T23:44:21.673Z,18.78
2018-09-02T23:46:50.089Z,18.77
2018-09-02T23:49:18.724Z,18.78
2018-09-02T23:51:47.212Z,18.76
2018-09-02T23:54:15.701Z,18.75
2018-09-02T23:56:44.291Z,18.74
2018-09-02T23:59:12.808Z,18.73
